CPX233 Details

Departure: Sacramento International Airport (KSMF)
Arrival: Phoenix Sky Harbor International Airport (KPHX)
Route: SCTWN2 SCTWN DOSCO OAL LIDAT BTY J92 BLD PRFUM WOTRO BRUSR1


Current Weather Information
KSMF 261010Z 20003KT 5SM -RA BR FEW015 SCT020 OVC030 11/11 A3004 RMK AO2 RAB0955 P0000 T01110111
KPHX 260951Z 00000KT 10SM BKN250 17/03 A2994 RMK AO2 SLP125 T01720033